Time;durP1;ratioP1;P1;durP2;ratioP2;P2;SDS_P1;SDS_P2;PMS_P1;PMS_P2;Temp;Humidity;BMP_temperature;BMP_pressure;BME280_temperature;BME280_humidity;BME280_pressure;Samples;Min_cycle;Max_cycle;Signal;HPM_P1;HPM_P2
2023/11/09 00:00:37;;;;;;;2.73;1.47;;;;;;;;;;4956806;28;20222;-85
2023/11/09 00:03:04;;;;;;;2.33;1.13;;;;;;;;;;4935788;28;20310;-83
2023/11/09 00:05:32;;;;;;;1.23;1.13;;;;;;;;;;4938194;29;20300;-84
2023/11/09 00:08:01;;;;;;;2.70;1.30;;;;;;;;;;4942577;28;21015;-86
2023/11/09 00:10:26;;;;;;;1.43;1.30;;;;;;;;;;4943795;28;20252;-83
2023/11/09 00:12:53;;;;;;;3.17;1.30;;;;;;;;;;4984323;28;20222;-83
2023/11/09 00:15:26;;;;;;;1.63;1.27;;;;;;;;;;4949646;28;20237;-83
2023/11/09 00:17:56;;;;;;;1.60;1.20;;;;;;;;;;4939349;29;20216;-84
2023/11/09 00:20:21;;;;;;;4.53;1.33;;;;;;;;;;4943020;28;20256;-84
2023/11/09 00:22:48;;;;;;;1.37;1.27;;;;;;;;;;4938490;28;20237;-84
2023/11/09 00:25:21;;;;;;;2.47;1.30;;;;;;;;;;4910455;28;20223;-83
2023/11/09 00:27:51;;;;;;;1.30;1.20;;;;;;;;;;4941077;29;20743;-82
2023/11/09 00:30:20;;;;;;;1.27;1.17;;;;;;;;;;4946043;28;20644;-84
2023/11/09 00:32:46;;;;;;;2.10;1.40;;;;;;;;;;4923262;29;20591;-85
2023/11/09 00:35:14;;;;;;;3.97;1.43;;;;;;;;;;4936212;28;20227;-83
2023/11/09 00:37:41;;;;;;;1.43;1.30;;;;;;;;;;4924409;29;20610;-83
2023/11/09 00:40:11;;;;;;;2.10;1.40;;;;;;;;;;4920412;28;20329;-82
2023/11/09 00:42:37;;;;;;;1.50;1.20;;;;;;;;;;4923591;29;20208;-84
2023/11/09 00:45:08;;;;;;;1.93;1.43;;;;;;;;;;4935595;28;20202;-83
2023/11/09 00:47:33;;;;;;;1.30;1.20;;;;;;;;;;4937334;29;20227;-85
2023/11/09 00:49:59;;;;;;;2.60;1.30;;;;;;;;;;4936470;29;20234;-83
2023/11/09 00:52:28;;;;;;;1.30;1.20;;;;;;;;;;4970362;28;20577;-83
2023/11/09 00:54:53;;;;;;;3.33;1.40;;;;;;;;;;4923698;29;20278;-84
2023/11/09 00:57:23;;;;;;;4.53;1.77;;;;;;;;;;4924091;28;20227;-83
2023/11/09 00:59:49;;;;;;;3.30;1.77;;;;;;;;;;4935859;28;20223;-84
2023/11/09 01:02:16;;;;;;;2.70;1.30;;;;;;;;;;4940888;28;20242;-84
2023/11/09 01:04:42;;;;;;;1.77;1.67;;;;;;;;;;4941691;28;20215;-82
2023/11/09 01:07:09;;;;;;;2.60;1.60;;;;;;;;;;4916570;28;20625;-82
2023/11/09 01:09:39;;;;;;;2.60;1.27;;;;;;;;;;4938210;29;20223;-84
2023/11/09 01:12:05;;;;;;;1.53;1.43;;;;;;;;;;4938812;28;20254;-83
2023/11/09 01:14:36;;;;;;;4.93;1.50;;;;;;;;;;4949506;28;20227;-83
2023/11/09 01:17:03;;;;;;;1.50;1.40;;;;;;;;;;4922825;28;20230;-84
2023/11/09 01:19:31;;;;;;;3.20;1.83;;;;;;;;;;4941825;29;20231;-84
2023/11/09 01:21:59;;;;;;;3.27;2.00;;;;;;;;;;4960729;28;20588;-83
2023/11/09 01:24:25;;;;;;;3.67;1.80;;;;;;;;;;4963161;28;20225;-84
2023/11/09 01:26:57;;;;;;;1.63;1.53;;;;;;;;;;4962787;28;20606;-82
2023/11/09 01:29:27;;;;;;;2.30;2.10;;;;;;;;;;4979500;28;20266;-81
2023/11/09 01:31:54;;;;;;;2.67;1.80;;;;;;;;;;4994961;28;20226;-83
2023/11/09 01:34:20;;;;;;;2.00;1.90;;;;;;;;;;4946679;28;20314;-82
2023/11/09 01:36:48;;;;;;;3.83;1.70;;;;;;;;;;4948425;28;20253;-82
2023/11/09 01:39:16;;;;;;;2.37;1.90;;;;;;;;;;4947192;28;20239;-83
2023/11/09 01:41:45;;;;;;;2.30;1.93;;;;;;;;;;4957640;28;20229;-82
2023/11/09 01:44:11;;;;;;;5.67;2.20;;;;;;;;;;4972009;28;20302;-82
2023/11/09 01:46:39;;;;;;;2.40;2.20;;;;;;;;;;4965869;28;20229;-83
2023/11/09 01:49:08;;;;;;;2.40;2.03;;;;;;;;;;4956154;28;20229;-84
2023/11/09 01:51:34;;;;;;;2.60;2.07;;;;;;;;;;4944498;28;20234;-87
2023/11/09 01:53:59;;;;;;;2.63;2.33;;;;;;;;;;4956345;28;20214;-86
2023/11/09 01:56:25;;;;;;;2.57;2.20;;;;;;;;;;4956621;28;20586;-84
2023/11/09 01:58:50;;;;;;;2.20;2.00;;;;;;;;;;4957037;28;20222;-83
2023/11/09 02:01:16;;;;;;;2.73;2.50;;;;;;;;;;4955367;28;20222;-82
2023/11/09 02:03:42;;;;;;;2.30;2.10;;;;;;;;;;4940626;28;20226;-85
2023/11/09 02:06:12;;;;;;;6.10;2.50;;;;;;;;;;4962626;28;20778;-86
2023/11/09 02:08:38;;;;;;;3.87;2.67;;;;;;;;;;4960329;28;20230;-84
2023/11/09 02:11:07;;;;;;;2.90;2.63;;;;;;;;;;4939825;28;20246;-83
2023/11/09 02:13:32;;;;;;;2.77;2.53;;;;;;;;;;4946015;28;20263;-84
2023/11/09 02:16:00;;;;;;;2.77;2.47;;;;;;;;;;4938626;28;20846;-82
2023/11/09 02:18:28;;;;;;;3.47;2.93;;;;;;;;;;4952123;28;20309;-84
2023/11/09 02:20:54;;;;;;;2.80;2.60;;;;;;;;;;4957471;28;20281;-84
2023/11/09 02:23:29;;;;;;;2.70;2.47;;;;;;;;;;4938537;28;20561;-83
2023/11/09 02:26:00;;;;;;;2.80;2.60;;;;;;;;;;4940249;28;20222;-84
2023/11/09 02:28:31;;;;;;;3.23;2.60;;;;;;;;;;4922456;28;20278;-87
2023/11/09 02:30:57;;;;;;;5.63;2.77;;;;;;;;;;4937480;28;20230;-84
2023/11/09 02:33:23;;;;;;;3.60;2.70;;;;;;;;;;4919823;28;20227;-84
2023/11/09 02:35:53;;;;;;;2.57;2.37;;;;;;;;;;4938503;29;20251;-86
2023/11/09 02:38:19;;;;;;;3.10;2.80;;;;;;;;;;4907043;28;20329;-84
2023/11/09 02:40:47;;;;;;;2.67;2.47;;;;;;;;;;4926494;29;20297;-87
2023/11/09 02:43:12;;;;;;;2.43;2.23;;;;;;;;;;4930229;28;20215;-84
2023/11/09 02:45:38;;;;;;;2.67;2.47;;;;;;;;;;4942697;28;20218;-85
2023/11/09 02:48:06;;;;;;;3.23;2.90;;;;;;;;;;4958202;28;20277;-85
2023/11/09 02:50:31;;;;;;;3.30;2.60;;;;;;;;;;4966185;28;20241;-84
2023/11/09 02:52:57;;;;;;;2.93;2.60;;;;;;;;;;4971957;28;20314;-86
2023/11/09 02:55:23;;;;;;;2.60;2.47;;;;;;;;;;4937555;28;20246;-83
2023/11/09 02:57:48;;;;;;;3.50;2.60;;;;;;;;;;4947402;28;20226;-84
2023/11/09 03:00:14;;;;;;;3.67;2.77;;;;;;;;;;4953638;28;20295;-82
2023/11/09 03:02:42;;;;;;;2.67;2.53;;;;;;;;;;4959901;28;20262;-85
2023/11/09 03:05:07;;;;;;;3.00;2.80;;;;;;;;;;4940645;28;20229;-85
2023/11/09 03:07:35;;;;;;;3.30;3.10;;;;;;;;;;4957998;28;20218;-85
2023/11/09 03:10:05;;;;;;;3.00;2.80;;;;;;;;;;4939480;28;20237;-87
2023/11/09 03:12:30;;;;;;;3.77;3.17;;;;;;;;;;4949088;28;20225;-84
2023/11/09 03:14:58;;;;;;;3.10;2.90;;;;;;;;;;4948606;28;20277;-85
2023/11/09 03:17:24;;;;;;;4.67;3.23;;;;;;;;;;4909150;28;20223;-83
2023/11/09 03:19:49;;;;;;;3.10;2.90;;;;;;;;;;4938928;28;20226;-84
2023/11/09 03:22:19;;;;;;;3.20;2.97;;;;;;;;;;4955436;28;20232;-83
2023/11/09 03:24:45;;;;;;;3.60;3.30;;;;;;;;;;4940265;28;20229;-83
2023/11/09 03:27:11;;;;;;;3.33;3.07;;;;;;;;;;4947763;28;20223;-85
2023/11/09 03:29:39;;;;;;;3.97;3.67;;;;;;;;;;4959868;28;20236;-85
2023/11/09 03:32:10;;;;;;;4.30;3.90;;;;;;;;;;4943040;28;20230;-84
2023/11/09 03:34:37;;;;;;;3.87;3.53;;;;;;;;;;4975179;28;20304;-83
2023/11/09 03:37:03;;;;;;;4.57;4.17;;;;;;;;;;4958061;28;20220;-82
2023/11/09 03:39:33;;;;;;;5.07;4.10;;;;;;;;;;4961106;28;20229;-83
2023/11/09 03:42:04;;;;;;;3.80;3.50;;;;;;;;;;4961886;28;20258;-84
2023/11/09 03:44:37;;;;;;;6.67;4.00;;;;;;;;;;4924514;29;20688;-82
2023/11/09 03:47:07;;;;;;;4.60;4.30;;;;;;;;;;4958873;28;20218;-84
2023/11/09 03:49:38;;;;;;;4.30;4.00;;;;;;;;;;4961792;28;20710;-85
2023/11/09 03:52:04;;;;;;;4.30;4.00;;;;;;;;;;4957651;28;20225;-86
2023/11/09 03:54:32;;;;;;;4.70;4.13;;;;;;;;;;4954514;28;20215;-84
2023/11/09 03:56:57;;;;;;;4.40;4.00;;;;;;;;;;4960782;28;20358;-84
2023/11/09 04:03:14;;;;;;;3.87;3.50;;;;;;;;;;4974881;28;20246;-84
2023/11/09 04:05:40;;;;;;;5.00;4.00;;;;;;;;;;4962010;28;20778;-85
2023/11/09 04:08:08;;;;;;;7.97;4.20;;;;;;;;;;4928501;28;20211;-85
2023/11/09 04:10:34;;;;;;;4.20;3.73;;;;;;;;;;4928704;29;20625;-84
2023/11/09 04:12:59;;;;;;;4.03;3.63;;;;;;;;;;4955901;28;20229;-86
2023/11/09 04:15:27;;;;;;;4.50;4.10;;;;;;;;;;4958327;28;20890;-86
2023/11/09 04:17:53;;;;;;;4.23;3.90;;;;;;;;;;4941689;29;20245;-85
2023/11/09 04:20:20;;;;;;;4.03;3.67;;;;;;;;;;4961952;28;20249;-84
2023/11/09 04:22:48;;;;;;;4.63;4.27;;;;;;;;;;4955576;28;20226;-84
2023/11/09 04:25:14;;;;;;;5.63;4.30;;;;;;;;;;4942928;28;20471;-84
2023/11/09 04:27:42;;;;;;;4.93;4.47;;;;;;;;;;4967616;28;20221;-85
2023/11/09 04:30:09;;;;;;;4.37;4.07;;;;;;;;;;4943114;28;20233;-84
2023/11/09 04:32:39;;;;;;;4.33;3.93;;;;;;;;;;4933779;28;20214;-86
2023/11/09 04:35:07;;;;;;;4.57;4.17;;;;;;;;;;4934513;28;20305;-85
2023/11/09 04:37:32;;;;;;;5.20;3.77;;;;;;;;;;4946921;28;20811;-86
2023/11/09 04:39:58;;;;;;;4.47;3.93;;;;;;;;;;4927086;28;20229;-86
2023/11/09 04:42:29;;;;;;;4.60;4.20;;;;;;;;;;4938688;28;20228;-84
2023/11/09 04:45:02;;;;;;;5.57;4.90;;;;;;;;;;4957056;28;20214;-78
2023/11/09 04:47:29;;;;;;;4.30;3.90;;;;;;;;;;4969115;28;20232;-78
2023/11/09 04:49:58;;;;;;;5.43;4.50;;;;;;;;;;4945446;28;20687;-77
2023/11/09 04:52:30;;;;;;;5.23;4.20;;;;;;;;;;4958605;28;20230;-77
2023/11/09 04:55:12;;;;;;;4.63;4.27;;;;;;;;;;4953796;28;20214;-77
2023/11/09 05:08:40;;;;;;;4.67;4.30;;;;;;;;;;4962021;28;20285;-76
2023/11/09 05:11:09;;;;;;;5.90;4.60;;;;;;;;;;4953126;28;20231;-77
2023/11/09 05:13:37;;;;;;;4.97;4.57;;;;;;;;;;4947391;28;20241;-78
2023/11/09 05:16:03;;;;;;;4.87;4.47;;;;;;;;;;4942328;28;20223;-77
2023/11/09 05:18:30;;;;;;;5.37;4.07;;;;;;;;;;4975766;28;20398;-76
2023/11/09 05:20:59;;;;;;;5.03;4.60;;;;;;;;;;4949828;28;20218;-77
2023/11/09 05:23:25;;;;;;;6.60;4.70;;;;;;;;;;4957197;28;20226;-76
2023/11/09 05:25:51;;;;;;;4.97;4.50;;;;;;;;;;4947243;28;20778;-77
2023/11/09 05:28:18;;;;;;;4.90;4.40;;;;;;;;;;4943927;28;20290;-77
2023/11/09 05:30:46;;;;;;;5.03;4.53;;;;;;;;;;4972072;28;20545;-77
2023/11/09 05:33:13;;;;;;;4.73;4.33;;;;;;;;;;4946031;28;20246;-77
2023/11/09 05:35:39;;;;;;;5.97;4.30;;;;;;;;;;4943230;28;20220;-77
2023/11/09 05:38:05;;;;;;;5.27;4.77;;;;;;;;;;4946156;28;20234;-78
2023/11/09 05:40:35;;;;;;;5.50;5.00;;;;;;;;;;4960497;28;20597;-77
2023/11/09 05:43:03;;;;;;;5.50;4.83;;;;;;;;;;4960251;28;20226;-77
2023/11/09 05:45:29;;;;;;;4.80;4.40;;;;;;;;;;4948149;28;20229;-77
2023/11/09 05:47:58;;;;;;;6.27;4.57;;;;;;;;;;4944470;28;20304;-77
2023/11/09 05:50:23;;;;;;;4.50;4.13;;;;;;;;;;4958548;28;20234;-76
2023/11/09 05:52:51;;;;;;;5.43;4.17;;;;;;;;;;4934315;28;20227;-77
2023/11/09 05:55:16;;;;;;;5.10;4.57;;;;;;;;;;4945486;28;20691;-78
2023/11/09 05:57:44;;;;;;;5.30;4.63;;;;;;;;;;4955122;28;20245;-76
2023/11/09 06:00:14;;;;;;;5.77;4.40;;;;;;;;;;4960275;28;20231;-76
2023/11/09 06:02:39;;;;;;;5.00;4.47;;;;;;;;;;4966671;28;20825;-76
2023/11/09 06:05:07;;;;;;;4.30;4.00;;;;;;;;;;4972197;28;20237;-79
2023/11/09 06:07:35;;;;;;;6.07;4.30;;;;;;;;;;4967734;28;20237;-78
2023/11/09 06:10:03;;;;;;;4.37;4.00;;;;;;;;;;4978317;28;20215;-78
2023/11/09 06:12:29;;;;;;;4.63;4.23;;;;;;;;;;4963948;28;20242;-78
2023/11/09 06:14:56;;;;;;;4.97;4.43;;;;;;;;;;4967744;28;20227;-79
2023/11/09 06:17:24;;;;;;;7.73;4.27;;;;;;;;;;4962320;28;20242;-80
2023/11/09 06:19:52;;;;;;;4.73;4.13;;;;;;;;;;4946208;28;20778;-79
2023/11/09 06:22:20;;;;;;;4.80;4.40;;;;;;;;;;4946381;28;20253;-78
2023/11/09 06:24:51;;;;;;;4.73;4.33;;;;;;;;;;4945805;28;20232;-78
2023/11/09 06:27:17;;;;;;;4.83;4.43;;;;;;;;;;4973651;28;20316;-79
2023/11/09 06:29:46;;;;;;;5.80;4.60;;;;;;;;;;4932533;28;20218;-79
2023/11/09 06:32:12;;;;;;;4.80;4.40;;;;;;;;;;4959917;28;20267;-78
2023/11/09 06:34:42;;;;;;;5.10;4.60;;;;;;;;;;4937551;28;20227;-77
2023/11/09 06:37:08;;;;;;;6.97;4.47;;;;;;;;;;4961984;28;20229;-78
2023/11/09 06:39:33;;;;;;;4.87;4.37;;;;;;;;;;4962043;28;20248;-78
2023/11/09 06:42:01;;;;;;;5.30;4.80;;;;;;;;;;4967499;28;21020;-80
2023/11/09 06:44:28;;;;;;;4.67;4.27;;;;;;;;;;4965364;28;20233;-77
2023/11/09 06:46:58;;;;;;;5.37;4.70;;;;;;;;;;4962537;28;20223;-76
2023/11/09 06:49:24;;;;;;;4.60;4.20;;;;;;;;;;4957038;28;20231;-79
2023/11/09 06:51:49;;;;;;;4.70;4.30;;;;;;;;;;4969840;28;20224;-77
2023/11/09 06:54:19;;;;;;;5.60;4.57;;;;;;;;;;4961430;28;20696;-76
2023/11/09 06:56:44;;;;;;;4.87;4.30;;;;;;;;;;4967949;28;20235;-78
2023/11/09 06:59:12;;;;;;;4.57;3.90;;;;;;;;;;4938885;28;20237;-79
2023/11/09 07:01:38;;;;;;;5.23;4.10;;;;;;;;;;4969864;28;20221;-80
2023/11/09 07:04:04;;;;;;;4.70;4.30;;;;;;;;;;4965443;28;20218;-80
2023/11/09 07:06:29;;;;;;;6.83;4.70;;;;;;;;;;4964427;28;20245;-79
2023/11/09 07:08:57;;;;;;;5.27;4.40;;;;;;;;;;4965642;28;20277;-79
2023/11/09 07:11:23;;;;;;;4.53;4.13;;;;;;;;;;4970359;28;20244;-78
2023/11/09 07:13:48;;;;;;;5.97;4.50;;;;;;;;;;4954443;28;20210;-78
2023/11/09 07:16:15;;;;;;;4.63;4.27;;;;;;;;;;4964745;28;20237;-80
2023/11/09 07:18:41;;;;;;;5.67;4.83;;;;;;;;;;4971547;28;20218;-78
2023/11/09 07:21:08;;;;;;;6.23;4.43;;;;;;;;;;4966376;28;20272;-79
2023/11/09 07:23:33;;;;;;;7.20;4.60;;;;;;;;;;4968810;28;20230;-81
2023/11/09 07:25:59;;;;;;;5.60;4.60;;;;;;;;;;4955504;28;20234;-79
2023/11/09 07:28:24;;;;;;;4.90;4.43;;;;;;;;;;4949321;28;20223;-77
2023/11/09 07:30:51;;;;;;;4.83;4.43;;;;;;;;;;4958900;28;20232;-78
2023/11/09 07:33:17;;;;;;;5.17;4.57;;;;;;;;;;4954847;28;20597;-79
2023/11/09 07:35:45;;;;;;;7.63;4.50;;;;;;;;;;4967360;28;20215;-79
2023/11/09 07:38:14;;;;;;;5.47;4.97;;;;;;;;;;4949595;28;20222;-80
2023/11/09 07:40:42;;;;;;;5.40;4.90;;;;;;;;;;4969859;28;20226;-81
2023/11/09 07:43:10;;;;;;;4.63;4.23;;;;;;;;;;4961905;28;20553;-79
2023/11/09 07:45:37;;;;;;;4.67;4.27;;;;;;;;;;4955499;28;20285;-80
2023/11/09 07:48:06;;;;;;;4.60;4.20;;;;;;;;;;4956271;28;20238;-79
2023/11/09 07:50:33;;;;;;;4.80;4.20;;;;;;;;;;4961117;28;20240;-81
2023/11/09 07:53:03;;;;;;;4.90;4.50;;;;;;;;;;4952731;28;20223;-80
2023/11/09 07:55:29;;;;;;;6.03;4.33;;;;;;;;;;4961155;28;20234;-78
2023/11/09 07:58:03;;;;;;;4.90;4.33;;;;;;;;;;4977455;28;20218;-79
2023/11/09 08:00:29;;;;;;;4.20;3.90;;;;;;;;;;4945708;28;20285;-77
2023/11/09 08:02:55;;;;;;;4.30;3.90;;;;;;;;;;4938959;28;20276;-80
2023/11/09 08:05:24;;;;;;;4.80;4.40;;;;;;;;;;4961813;28;20226;-78
2023/11/09 08:07:53;;;;;;;5.07;4.40;;;;;;;;;;4960852;28;20218;-81
2023/11/09 08:10:27;;;;;;;5.13;4.20;;;;;;;;;;4956839;28;20227;-80
2023/11/09 08:12:54;;;;;;;4.73;4.30;;;;;;;;;;4950804;28;20237;-77
2023/11/09 08:15:19;;;;;;;4.47;4.07;;;;;;;;;;4927966;28;20722;-79
2023/11/09 08:17:45;;;;;;;5.60;4.50;;;;;;;;;;4968136;28;20223;-80
2023/11/09 08:20:13;;;;;;;5.03;4.17;;;;;;;;;;4946377;28;20262;-79
2023/11/09 08:22:42;;;;;;;4.20;3.80;;;;;;;;;;4966986;28;20222;-78
2023/11/09 08:25:08;;;;;;;4.63;4.10;;;;;;;;;;4969521;28;20218;-79
2023/11/09 08:27:37;;;;;;;4.33;3.93;;;;;;;;;;4955991;28;20227;-78
2023/11/09 08:30:09;;;;;;;4.90;4.50;;;;;;;;;;4963886;28;20227;-79
2023/11/09 08:32:36;;;;;;;4.53;4.13;;;;;;;;;;4955843;28;20239;-78
2023/11/09 08:35:02;;;;;;;4.57;4.03;;;;;;;;;;4948263;29;20210;-76
2023/11/09 08:37:31;;;;;;;4.80;3.70;;;;;;;;;;4966832;28;20251;-76
2023/11/09 08:39:58;;;;;;;5.13;3.80;;;;;;;;;;4964788;28;20380;-76
2023/11/09 08:42:26;;;;;;;3.83;3.53;;;;;;;;;;4961818;28;20252;-77
2023/11/09 08:44:52;;;;;;;4.20;3.80;;;;;;;;;;4949508;29;20203;-77
2023/11/09 08:47:21;;;;;;;3.80;3.50;;;;;;;;;;4967777;28;20362;-77
2023/11/09 08:49:46;;;;;;;3.87;3.57;;;;;;;;;;4967221;28;20221;-77
2023/11/09 08:52:15;;;;;;;4.97;3.37;;;;;;;;;;4947256;28;20289;-77
2023/11/09 08:54:41;;;;;;;3.50;3.20;;;;;;;;;;4941282;29;20223;-80
2023/11/09 08:57:07;;;;;;;4.10;3.80;;;;;;;;;;4930357;28;20243;-77
2023/11/09 08:59:35;;;;;;;3.77;3.30;;;;;;;;;;4931558;29;20689;-79
2023/11/09 09:02:02;;;;;;;3.80;2.73;;;;;;;;;;4972250;28;20665;-78
2023/11/09 09:04:30;;;;;;;6.17;3.70;;;;;;;;;;4947825;28;20225;-79
2023/11/09 09:06:55;;;;;;;4.40;3.00;;;;;;;;;;4949090;28;20234;-78
2023/11/09 09:09:26;;;;;;;4.53;3.30;;;;;;;;;;4978722;28;20230;-77
2023/11/09 09:11:52;;;;;;;3.40;3.07;;;;;;;;;;4975343;28;20756;-79
2023/11/09 09:14:18;;;;;;;4.77;2.73;;;;;;;;;;4955807;28;20223;-79
2023/11/09 09:16:44;;;;;;;3.63;2.80;;;;;;;;;;4964369;28;20276;-80
2023/11/09 09:19:09;;;;;;;2.77;2.57;;;;;;;;;;4973187;28;20288;-79
2023/11/09 09:21:36;;;;;;;3.60;2.90;;;;;;;;;;4951443;28;20463;-79
2023/11/09 09:24:03;;;;;;;4.23;3.30;;;;;;;;;;4968009;28;20302;-78
2023/11/09 09:26:31;;;;;;;3.73;3.37;;;;;;;;;;4949062;28;20309;-79
2023/11/09 09:28:57;;;;;;;4.93;4.00;;;;;;;;;;4963244;28;20258;-77
2023/11/09 09:31:25;;;;;;;8.83;5.47;;;;;;;;;;4955059;28;20238;-78
2023/11/09 09:34:23;;;;;;;13.80;6.50;;;;;;;;;;4947902;28;20220;-79
2023/11/09 09:36:49;;;;;;;6.60;4.97;;;;;;;;;;4968440;28;20264;-79
2023/11/09 09:39:15;;;;;;;6.20;4.90;;;;;;;;;;4947362;28;20257;-80
2023/11/09 09:41:50;;;;;;;6.03;4.90;;;;;;;;;;4953136;28;20226;-79
2023/11/09 09:44:18;;;;;;;5.00;4.47;;;;;;;;;;4956059;28;20254;-79
2023/11/09 09:46:47;;;;;;;8.80;3.97;;;;;;;;;;4970608;28;20253;-78
2023/11/09 09:49:17;;;;;;;3.80;3.50;;;;;;;;;;4951726;28;20704;-78
2023/11/09 09:51:43;;;;;;;4.63;2.83;;;;;;;;;;4963698;28;20993;-78
2023/11/09 09:54:09;;;;;;;3.30;2.30;;;;;;;;;;4954291;28;20222;-77
2023/11/09 09:56:42;;;;;;;4.13;2.33;;;;;;;;;;4957067;28;20230;-79
2023/11/09 09:59:11;;;;;;;2.40;2.20;;;;;;;;;;4965525;28;20223;-77
2023/11/09 10:01:50;;;;;;;2.63;1.90;;;;;;;;;;4957588;28;20226;-78
2023/11/09 10:04:21;;;;;;;2.57;2.37;;;;;;;;;;4946907;28;20223;-78
2023/11/09 10:06:50;;;;;;;2.30;2.10;;;;;;;;;;4964142;28;20629;-78
2023/11/09 10:09:15;;;;;;;2.17;1.97;;;;;;;;;;4946761;28;20206;-78
2023/11/09 10:11:42;;;;;;;3.13;1.70;;;;;;;;;;4967194;28;20243;-77
2023/11/09 10:14:15;;;;;;;1.67;1.50;;;;;;;;;;4947728;28;20317;-79
2023/11/09 10:16:42;;;;;;;1.70;1.43;;;;;;;;;;4962751;28;20222;-77
2023/11/09 10:19:09;;;;;;;3.10;1.80;;;;;;;;;;4947862;28;20784;-78
2023/11/09 10:21:34;;;;;;;1.63;1.50;;;;;;;;;;4959430;28;20227;-78
2023/11/09 10:24:00;;;;;;;3.70;1.70;;;;;;;;;;4966576;28;20322;-78
2023/11/09 10:26:41;;;;;;;1.60;1.50;;;;;;;;;;4946065;28;20230;-78
2023/11/09 10:29:11;;;;;;;2.33;1.40;;;;;;;;;;4946807;28;20653;-78
2023/11/09 10:31:39;;;;;;;1.47;1.37;;;;;;;;;;4963136;28;20238;-76
2023/11/09 10:34:04;;;;;;;1.40;1.20;;;;;;;;;;4959882;28;20234;-78
2023/11/09 10:36:30;;;;;;;1.60;1.50;;;;;;;;;;4964316;28;20226;-78
2023/11/09 10:38:56;;;;;;;1.80;1.53;;;;;;;;;;4942791;28;20218;-79
2023/11/09 10:41:23;;;;;;;1.50;1.30;;;;;;;;;;4941317;28;20285;-76
2023/11/09 10:43:49;;;;;;;1.30;1.20;;;;;;;;;;4936180;28;20217;-78
2023/11/09 10:46:17;;;;;;;1.83;1.50;;;;;;;;;;4966988;28;20222;-78
2023/11/09 10:48:44;;;;;;;2.17;1.60;;;;;;;;;;4957574;28;20215;-78
2023/11/09 10:51:10;;;;;;;1.13;1.13;;;;;;;;;;4971983;28;20231;-76
2023/11/09 10:53:38;;;;;;;2.63;1.40;;;;;;;;;;4972609;28;20222;-76
2023/11/09 10:56:09;;;;;;;1.30;1.20;;;;;;;;;;4950679;28;20809;-77
2023/11/09 10:58:40;;;;;;;1.33;1.23;;;;;;;;;;4955156;28;20587;-79
2023/11/09 11:01:06;;;;;;;2.43;1.20;;;;;;;;;;4954100;28;20214;-77
2023/11/09 11:03:44;;;;;;;2.33;1.27;;;;;;;;;;4981098;28;20215;-77
2023/11/09 11:06:16;;;;;;;1.73;1.30;;;;;;;;;;4971382;28;20241;-77
2023/11/09 11:08:50;;;;;;;1.40;1.23;;;;;;;;;;4963536;28;20241;-77
2023/11/09 11:11:17;;;;;;;1.33;1.23;;;;;;;;;;4978324;28;20234;-79
2023/11/09 11:13:46;;;;;;;1.20;1.10;;;;;;;;;;4947516;28;20330;-79
2023/11/09 11:16:26;;;;;;;1.40;1.10;;;;;;;;;;4937773;28;20223;-79
2023/11/09 11:19:36;;;;;;;0.97;0.97;;;;;;;;;;4974192;28;20243;-77
2023/11/09 11:22:08;;;;;;;1.20;1.10;;;;;;;;;;4974644;28;20224;-78
2023/11/09 11:24:53;;;;;;;1.20;1.10;;;;;;;;;;4967388;28;20230;-79
2023/11/09 11:27:37;;;;;;;2.40;1.80;;;;;;;;;;4966652;28;20704;-79
2023/11/09 11:30:39;;;;;;;1.13;1.10;;;;;;;;;;4971275;28;20648;-80
2023/11/09 11:33:12;;;;;;;2.93;1.33;;;;;;;;;;4951232;28;20273;-78
2023/11/09 11:35:46;;;;;;;2.23;0.97;;;;;;;;;;4972505;28;20233;-78
2023/11/09 11:38:15;;;;;;;1.13;1.03;;;;;;;;;;4961961;28;20255;-79
2023/11/09 11:40:46;;;;;;;1.10;1.10;;;;;;;;;;4977129;28;20232;-77
2023/11/09 11:43:14;;;;;;;1.50;1.30;;;;;;;;;;4915954;28;20222;-79
2023/11/09 11:45:40;;;;;;;2.30;1.00;;;;;;;;;;4964969;28;20317;-77
2023/11/09 11:48:12;;;;;;;1.53;1.43;;;;;;;;;;4965312;28;20318;-77
2023/11/09 11:50:41;;;;;;;1.10;1.10;;;;;;;;;;4952116;28;20237;-79
2023/11/09 11:53:12;;;;;;;1.40;1.30;;;;;;;;;;4970549;28;20214;-80
2023/11/09 11:56:10;;;;;;;1.00;1.00;;;;;;;;;;4969199;28;20207;-78
2023/11/09 11:58:47;;;;;;;0.93;0.90;;;;;;;;;;4969445;28;20226;-78
2023/11/09 12:01:20;;;;;;;7.13;1.27;;;;;;;;;;4960978;28;20218;-78
2023/11/09 12:03:47;;;;;;;1.60;1.00;;;;;;;;;;4948339;28;20227;-78
2023/11/09 12:06:13;;;;;;;3.03;1.00;;;;;;;;;;4965035;28;20219;-80
2023/11/09 12:08:45;;;;;;;1.43;1.10;;;;;;;;;;4957098;28;21149;-79
2023/11/09 12:11:15;;;;;;;1.03;0.80;;;;;;;;;;4954839;28;20214;-78
2023/11/09 12:13:41;;;;;;;1.03;1.00;;;;;;;;;;4970232;28;20218;-78
2023/11/09 12:16:15;;;;;;;1.47;1.37;;;;;;;;;;4957971;28;20218;-78
2023/11/09 12:18:42;;;;;;;0.80;0.80;;;;;;;;;;4954346;28;20223;-77
2023/11/09 12:21:08;;;;;;;1.20;1.00;;;;;;;;;;4970154;28;20214;-79
2023/11/09 12:23:35;;;;;;;0.80;0.80;;;;;;;;;;4968441;28;20227;-80
2023/11/09 12:26:07;;;;;;;1.20;0.80;;;;;;;;;;4955026;28;20230;-78
2023/11/09 12:28:37;;;;;;;0.80;0.80;;;;;;;;;;4968431;28;20231;-78
2023/11/09 12:31:08;;;;;;;0.90;0.90;;;;;;;;;;4970477;28;20238;-79
2023/11/09 12:33:34;;;;;;;0.97;0.90;;;;;;;;;;4976045;28;20282;-79
2023/11/09 12:36:03;;;;;;;0.97;0.90;;;;;;;;;;4977657;28;20726;-76
2023/11/09 12:38:29;;;;;;;2.43;1.10;;;;;;;;;;4977806;28;20241;-79
2023/11/09 12:40:55;;;;;;;1.20;0.97;;;;;;;;;;4978891;28;20704;-79
2023/11/09 12:43:35;;;;;;;1.27;1.23;;;;;;;;;;4951755;28;20215;-79
2023/11/09 12:46:02;;;;;;;1.00;0.90;;;;;;;;;;4975981;28;20246;-77
2023/11/09 12:48:44;;;;;;;1.43;1.20;;;;;;;;;;4967423;28;20226;-78
2023/11/09 12:51:17;;;;;;;1.40;1.30;;;;;;;;;;4971909;28;20702;-77
2023/11/09 12:53:45;;;;;;;1.20;1.10;;;;;;;;;;4940671;28;20243;-79
2023/11/09 12:56:13;;;;;;;1.40;1.30;;;;;;;;;;4921754;28;20242;-78
2023/11/09 12:58:42;;;;;;;1.33;1.10;;;;;;;;;;4939211;29;20219;-80
2023/11/09 13:01:19;;;;;;;1.33;1.23;;;;;;;;;;4922191;28;20218;-80
2023/11/09 13:03:49;;;;;;;1.27;1.17;;;;;;;;;;4941391;28;20470;-80
2023/11/09 13:06:22;;;;;;;0.93;0.93;;;;;;;;;;4938797;28;20615;-80
2023/11/09 13:08:51;;;;;;;3.40;1.10;;;;;;;;;;4951386;28;20266;-80
2023/11/09 13:11:40;;;;;;;1.37;1.27;;;;;;;;;;4967479;28;20218;-80
2023/11/09 13:14:15;;;;;;;1.77;1.27;;;;;;;;;;4967179;28;20242;-81
2023/11/09 13:16:44;;;;;;;4.10;1.43;;;;;;;;;;4959287;28;20318;-80
2023/11/09 13:19:24;;;;;;;1.87;1.43;;;;;;;;;;4962464;28;20227;-79
2023/11/09 13:21:55;;;;;;;2.43;2.23;;;;;;;;;;4958699;28;20231;-80
2023/11/09 13:24:27;;;;;;;2.20;1.67;;;;;;;;;;4934583;28;20373;-79
2023/11/09 13:26:57;;;;;;;1.67;1.30;;;;;;;;;;4937547;28;20218;-79
2023/11/09 13:29:24;;;;;;;2.20;1.70;;;;;;;;;;4937804;28;20222;-80
2023/11/09 13:31:56;;;;;;;1.40;1.30;;;;;;;;;;4943301;28;20581;-79
2023/11/09 13:34:34;;;;;;;1.47;1.30;;;;;;;;;;4950141;28;20234;-78
2023/11/09 13:37:04;;;;;;;2.03;1.87;;;;;;;;;;4962772;28;20227;-79
2023/11/09 13:39:50;;;;;;;1.60;1.50;;;;;;;;;;4946789;28;20301;-79
2023/11/09 13:42:21;;;;;;;2.37;2.17;;;;;;;;;;4947025;28;20230;-80
2023/11/09 13:44:48;;;;;;;4.77;4.23;;;;;;;;;;4950457;28;20226;-78
2023/11/09 13:47:18;;;;;;;2.90;1.60;;;;;;;;;;4931276;28;20271;-79
2023/11/09 13:49:54;;;;;;;3.67;2.40;;;;;;;;;;4949760;28;20226;-77
2023/11/09 13:52:38;;;;;;;1.80;1.70;;;;;;;;;;4947131;28;20237;-78
2023/11/09 13:55:29;;;;;;;4.40;2.80;;;;;;;;;;4948622;28;20232;-78
2023/11/09 13:57:59;;;;;;;4.03;2.40;;;;;;;;;;4951640;28;20230;-79
2023/11/09 14:00:36;;;;;;;4.10;3.37;;;;;;;;;;4932605;28;20224;-79
2023/11/09 14:03:17;;;;;;;4.43;4.03;;;;;;;;;;4950279;28;20250;-79
2023/11/09 14:05:47;;;;;;;5.40;3.20;;;;;;;;;;4966677;28;20231;-78
2023/11/09 14:08:18;;;;;;;4.93;3.50;;;;;;;;;;4960892;28;20230;-79
2023/11/09 14:10:49;;;;;;;4.13;3.43;;;;;;;;;;4965253;28;20658;-80
2023/11/09 14:13:16;;;;;;;8.23;5.20;;;;;;;;;;4968534;28;20591;-79
2023/11/09 14:15:49;;;;;;;5.50;3.90;;;;;;;;;;4952333;28;20246;-78
2023/11/09 14:20:52;;;;;;;14.80;7.73;;;;;;;;;;4956992;28;20227;-80
2023/11/09 14:23:23;;;;;;;7.17;6.47;;;;;;;;;;4953724;28;20279;-79
2023/11/09 14:25:48;;;;;;;4.97;3.00;;;;;;;;;;4953582;28;20237;-77
2023/11/09 14:28:14;;;;;;;3.33;2.30;;;;;;;;;;4942996;28;20218;-78
2023/11/09 14:30:45;;;;;;;3.30;2.30;;;;;;;;;;4942386;28;20218;-80
2023/11/09 14:33:11;;;;;;;2.10;1.83;;;;;;;;;;4970471;28;20266;-78
2023/11/09 14:35:43;;;;;;;2.73;2.30;;;;;;;;;;4941270;28;20254;-78
2023/11/09 14:38:11;;;;;;;3.17;2.10;;;;;;;;;;4979837;28;20234;-79
2023/11/09 14:40:44;;;;;;;3.00;2.57;;;;;;;;;;4949226;28;20866;-79
2023/11/09 14:43:13;;;;;;;3.50;3.10;;;;;;;;;;4920437;28;20230;-80
2023/11/09 14:45:45;;;;;;;11.67;10.40;;;;;;;;;;4961296;28;20286;-79
2023/11/09 14:48:13;;;;;;;5.60;5.07;;;;;;;;;;4966628;28;20233;-80
2023/11/09 14:50:39;;;;;;;4.00;3.57;;;;;;;;;;4953761;28;20210;-81
2023/11/09 14:53:11;;;;;;;3.47;3.17;;;;;;;;;;4963640;28;20222;-80
2023/11/09 14:55:37;;;;;;;5.23;3.10;;;;;;;;;;4976741;28;20226;-80
2023/11/09 14:58:21;;;;;;;2.90;2.70;;;;;;;;;;4972490;28;20218;-80
2023/11/09 15:00:47;;;;;;;3.73;3.40;;;;;;;;;;4963331;28;20298;-80
2023/11/09 15:03:23;;;;;;;3.83;3.47;;;;;;;;;;4980292;28;20292;-79
2023/11/09 15:06:01;;;;;;;4.07;2.73;;;;;;;;;;4970765;28;20229;-80
2023/11/09 15:08:31;;;;;;;3.37;3.07;;;;;;;;;;4964185;28;20272;-80
2023/11/09 15:10:59;;;;;;;3.80;3.40;;;;;;;;;;4968962;28;20280;-80